Time;durP1;ratioP1;P1;durP2;ratioP2;P2;SDS_P1;SDS_P2;PMS_P1;PMS_P2;Temp;Humidity;BMP_temperature;BMP_pressure;BME280_temperature;BME280_humidity;BME280_pressure;Samples;Min_cycle;Max_cycle;Signal;HPM_P1;HPM_P2
2021/08/26 00:07:35;;;;;;;15.63;7.00;;;16.70;78.70;;;;;;5044221;28;20425;-73
2021/08/26 00:10:06;;;;;;;12.27;7.20;;;16.70;78.40;;;;;;5051263;28;20427;-73
2021/08/26 00:12:33;;;;;;;10.23;6.93;;;16.60;78.30;;;;;;5046106;28;20703;-74
2021/08/26 00:15:00;;;;;;;12.20;6.80;;;16.50;78.10;;;;;;5043938;28;21007;-71
2021/08/26 00:17:26;;;;;;;9.50;6.37;;;16.50;78.40;;;;;;5045817;28;20453;-74
2021/08/26 00:19:53;;;;;;;11.90;7.03;;;16.50;78.40;;;;;;5042698;28;20505;-73
2021/08/26 00:22:19;;;;;;;11.60;6.60;;;16.50;78.30;;;;;;5043778;28;20604;-72
2021/08/26 00:24:46;;;;;;;12.67;6.83;;;16.50;78.30;;;;;;5040415;28;20825;-72
2021/08/26 00:27:12;;;;;;;11.27;6.40;;;16.50;78.40;;;;;;5038030;28;20435;-72
2021/08/26 00:29:38;;;;;;;11.47;5.83;;;16.50;79.00;;;;;;5046228;28;20427;-73
2021/08/26 00:32:05;;;;;;;12.13;6.43;;;16.50;79.70;;;;;;5039893;28;20438;-73
2021/08/26 00:34:31;;;;;;;14.00;6.40;;;16.40;79.00;;;;;;5044937;28;20423;-72
2021/08/26 00:36:57;;;;;;;13.53;7.30;;;16.40;78.90;;;;;;5045093;28;20488;-73
2021/08/26 00:39:23;;;;;;;11.40;6.60;;;16.40;79.30;;;;;;5045466;28;20441;-74
2021/08/26 00:41:49;;;;;;;10.80;6.10;;;16.30;79.90;;;;;;5042738;28;20264;-73
2021/08/26 00:44:15;;;;;;;13.27;6.60;;;16.30;79.70;;;;;;5042295;28;20354;-71
2021/08/26 00:46:41;;;;;;;11.80;5.97;;;16.30;79.90;;;;;;5039848;28;20841;-72
2021/08/26 00:49:17;;;;;;;10.60;5.97;;;16.20;80.20;;;;;;5042000;28;20430;-72
2021/08/26 00:51:46;;;;;;;12.67;7.37;;;16.20;80.60;;;;;;5048865;28;20446;-72
2021/08/26 00:54:12;;;;;;;11.20;6.93;;;16.10;81.10;;;;;;5040611;28;20799;-73
2021/08/26 00:56:39;;;;;;;13.53;6.70;;;16.10;81.20;;;;;;5044956;28;20425;-74
2021/08/26 00:59:06;;;;;;;12.17;7.10;;;16.10;81.50;;;;;;5041860;28;20517;-71
2021/08/26 01:02:04;;;;;;;11.43;6.70;;;16.00;80.60;;;;;;5050280;28;21074;-72
2021/08/26 01:04:35;;;;;;;12.00;6.27;;;15.90;81.20;;;;;;5049074;28;20574;-72
2021/08/26 01:07:28;;;;;;;10.77;6.77;;;15.90;81.90;;;;;;5040670;28;20441;-73
2021/08/26 01:10:16;;;;;;;11.20;6.57;;;15.90;82.10;;;;;;5040068;28;20472;-71
2021/08/26 01:12:46;;;;;;;14.07;7.27;;;15.80;82.40;;;;;;5039201;28;20453;-72
2021/08/26 01:15:12;;;;;;;12.30;6.93;;;15.70;82.50;;;;;;5040949;28;20426;-72
2021/08/26 01:17:38;;;;;;;12.80;7.30;;;15.70;82.10;;;;;;5045211;28;20425;-72
2021/08/26 01:20:05;;;;;;;11.47;5.77;;;15.60;82.40;;;;;;5047553;28;20431;-73
2021/08/26 01:22:31;;;;;;;12.80;6.47;;;15.70;82.80;;;;;;5042751;28;20207;-72
2021/08/26 01:25:01;;;;;;;11.90;6.77;;;15.60;83.10;;;;;;5044448;28;21053;-72
2021/08/26 01:27:39;;;;;;;13.93;6.70;;;15.60;83.10;;;;;;5038394;28;20852;-72
2021/08/26 01:30:07;;;;;;;13.90;6.50;;;15.60;82.80;;;;;;5045033;28;20499;-72
2021/08/26 01:32:33;;;;;;;13.60;7.53;;;15.60;82.70;;;;;;5041606;28;20437;-73
2021/08/26 01:34:59;;;;;;;13.43;6.93;;;15.50;82.70;;;;;;5040590;28;20437;-71
2021/08/26 01:37:25;;;;;;;15.00;7.80;;;15.50;82.50;;;;;;5039689;28;20423;-72
2021/08/26 01:39:53;;;;;;;12.63;7.20;;;15.50;82.40;;;;;;5040062;28;20428;-73
2021/08/26 01:42:26;;;;;;;11.10;6.93;;;15.40;82.70;;;;;;5045960;28;20441;-72
2021/08/26 01:44:55;;;;;;;14.17;6.80;;;15.40;82.70;;;;;;5037723;28;20468;-71
2021/08/26 01:47:22;;;;;;;13.93;7.47;;;15.40;82.50;;;;;;5044132;28;20422;-72
2021/08/26 01:49:53;;;;;;;13.13;6.87;;;15.40;82.70;;;;;;5041389;28;20430;-72
2021/08/26 01:52:26;;;;;;;12.40;7.00;;;15.40;82.80;;;;;;5043937;28;20448;-73
2021/08/26 01:54:54;;;;;;;13.57;7.30;;;15.30;83.10;;;;;;5041931;28;20440;-73
2021/08/26 01:57:21;;;;;;;11.97;6.93;;;15.30;83.10;;;;;;5041975;28;21156;-72
2021/08/26 01:59:47;;;;;;;14.07;7.03;;;15.30;83.10;;;;;;5043776;28;20433;-74
2021/08/26 02:02:12;;;;;;;13.27;6.80;;;15.40;83.30;;;;;;5049423;28;20456;-73
2021/08/26 02:04:38;;;;;;;14.83;7.30;;;15.30;83.30;;;;;;5045161;28;20565;-74
2021/08/26 02:07:05;;;;;;;12.10;6.80;;;15.30;83.30;;;;;;5042127;28;20180;-73
2021/08/26 02:09:30;;;;;;;12.63;7.17;;;15.30;83.00;;;;;;5043308;28;20192;-73
2021/08/26 02:11:56;;;;;;;11.20;6.30;;;15.20;83.60;;;;;;5039638;28;20452;-72
2021/08/26 02:14:22;;;;;;;12.33;7.20;;;15.20;84.00;;;;;;5045059;28;20189;-73
2021/08/26 02:16:47;;;;;;;10.97;6.50;;;15.20;84.10;;;;;;5053490;28;20246;-72
2021/08/26 02:19:13;;;;;;;12.63;7.47;;;15.20;84.00;;;;;;5045992;28;20236;-74
2021/08/26 02:21:39;;;;;;;13.83;7.03;;;15.20;83.70;;;;;;5053285;28;20282;-73
2021/08/26 02:24:05;;;;;;;12.07;7.87;;;15.20;83.60;;;;;;5053113;28;20458;-73
2021/08/26 02:26:32;;;;;;;14.77;7.70;;;15.20;83.60;;;;;;5049105;28;20702;-72
2021/08/26 02:28:58;;;;;;;15.73;6.67;;;15.30;83.40;;;;;;5051872;28;20430;-73
2021/08/26 02:31:24;;;;;;;11.43;7.23;;;15.30;83.40;;;;;;5050242;28;20576;-72
2021/08/26 02:33:50;;;;;;;11.73;6.83;;;15.20;83.60;;;;;;5045242;28;20427;-71
2021/08/26 02:36:15;;;;;;;10.53;6.50;;;15.20;83.80;;;;;;5043528;28;20531;-72
2021/08/26 02:38:42;;;;;;;10.40;6.80;;;15.20;83.80;;;;;;5042384;28;20271;-72
2021/08/26 02:41:07;;;;;;;9.83;6.27;;;15.20;84.10;;;;;;5044231;28;20189;-71
2021/08/26 02:43:33;;;;;;;12.17;7.07;;;15.20;84.30;;;;;;5051753;28;21034;-73
2021/08/26 02:45:59;;;;;;;12.13;7.07;;;15.10;84.70;;;;;;5041771;28;20961;-73
2021/08/26 02:48:25;;;;;;;12.97;6.70;;;15.10;85.00;;;;;;5046586;28;20811;-72
2021/08/26 02:50:51;;;;;;;14.60;7.70;;;15.10;85.50;;;;;;5049260;28;20188;-71
2021/08/26 02:53:17;;;;;;;11.70;6.33;;;15.10;85.60;;;;;;5047862;28;20467;-72
2021/08/26 02:55:42;;;;;;;12.00;7.30;;;15.10;85.60;;;;;;5064601;28;20190;-72
2021/08/26 02:58:08;;;;;;;11.00;6.90;;;15.10;85.30;;;;;;5045429;28;20423;-72
2021/08/26 03:00:34;;;;;;;13.53;7.27;;;15.10;85.90;;;;;;5057474;28;20660;-71
2021/08/26 03:02:59;;;;;;;12.57;6.87;;;15.10;85.90;;;;;;5057254;28;20204;-72
2021/08/26 03:05:25;;;;;;;10.97;7.10;;;15.10;86.00;;;;;;5055728;28;20217;-72
2021/08/26 03:07:51;;;;;;;14.43;8.00;;;15.10;85.90;;;;;;5055890;28;20217;-74
2021/08/26 03:10:16;;;;;;;12.20;7.23;;;15.10;86.30;;;;;;5053734;28;20272;-72
2021/08/26 03:12:42;;;;;;;14.63;7.70;;;15.00;86.50;;;;;;5053625;28;20319;-72
2021/08/26 03:15:08;;;;;;;10.77;6.90;;;15.00;86.80;;;;;;5050789;28;20301;-73
2021/08/26 03:17:34;;;;;;;11.80;7.50;;;15.10;86.50;;;;;;5047770;28;20182;-73
2021/08/26 03:20:00;;;;;;;15.10;7.00;;;15.00;85.50;;;;;;5050593;28;20426;-74
2021/08/26 03:22:25;;;;;;;10.73;6.67;;;15.10;86.00;;;;;;5046334;28;20198;-72
2021/08/26 03:24:51;;;;;;;11.67;7.07;;;15.10;85.70;;;;;;5049730;28;20300;-72
2021/08/26 03:27:17;;;;;;;14.17;7.47;;;15.20;85.30;;;;;;5038687;28;20663;-72
2021/08/26 03:29:44;;;;;;;15.63;7.57;;;15.10;85.60;;;;;;5048055;28;20747;-71
2021/08/26 03:32:10;;;;;;;11.33;7.30;;;15.20;85.30;;;;;;5049468;28;20569;-71
2021/08/26 03:34:35;;;;;;;14.20;7.13;;;15.20;84.60;;;;;;5045187;28;20435;-72
2021/08/26 03:37:01;;;;;;;18.73;6.73;;;15.00;85.30;;;;;;5045444;28;20235;-72
2021/08/26 03:39:27;;;;;;;18.67;7.40;;;15.00;85.60;;;;;;5045242;28;20206;-73
2021/08/26 03:41:52;;;;;;;12.73;7.27;;;14.90;85.30;;;;;;5044557;28;20213;-72
2021/08/26 03:44:18;;;;;;;14.60;7.50;;;14.90;85.70;;;;;;5050422;28;20736;-72
2021/08/26 03:46:44;;;;;;;14.70;7.80;;;14.90;86.00;;;;;;5049663;28;20264;-72
2021/08/26 03:49:09;;;;;;;10.73;7.07;;;15.00;85.50;;;;;;5045326;28;20553;-73
2021/08/26 03:51:35;;;;;;;22.17;8.37;;;15.10;85.00;;;;;;5047461;28;20202;-72
2021/08/26 03:54:01;;;;;;;11.70;7.27;;;15.10;85.00;;;;;;5050340;28;20186;-72
2021/08/26 03:56:27;;;;;;;13.60;6.90;;;15.20;84.10;;;;;;5050964;28;20495;-74
2021/08/26 03:58:52;;;;;;;11.33;6.40;;;15.20;83.80;;;;;;5043467;28;20364;-72
2021/08/26 04:01:18;;;;;;;11.27;6.90;;;15.20;84.00;;;;;;5050885;28;20271;-73
2021/08/26 04:03:44;;;;;;;17.30;7.47;;;15.30;83.10;;;;;;5050919;28;20322;-71
2021/08/26 04:06:10;;;;;;;12.47;7.73;;;15.30;82.70;;;;;;5051054;28;20185;-73
2021/08/26 04:08:35;;;;;;;13.43;7.27;;;15.30;82.80;;;;;;5049468;28;20431;-73
2021/08/26 04:11:02;;;;;;;13.10;7.13;;;15.30;83.10;;;;;;5050641;28;20526;-72
2021/08/26 04:13:28;;;;;;;13.40;7.47;;;15.40;83.00;;;;;;5048599;28;20709;-72
2021/08/26 04:15:53;;;;;;;12.20;7.03;;;15.40;83.00;;;;;;5045806;28;20418;-72
2021/08/26 04:18:19;;;;;;;11.13;6.93;;;15.50;82.80;;;;;;5050442;28;20177;-72
2021/08/26 04:20:45;;;;;;;12.67;7.73;;;15.50;83.10;;;;;;5051158;28;20672;-73
2021/08/26 04:23:11;;;;;;;16.87;7.87;;;15.50;83.00;;;;;;5044539;28;20284;-71
2021/08/26 04:25:37;;;;;;;12.57;7.50;;;15.60;82.40;;;;;;5046824;28;20189;-72
2021/08/26 04:28:04;;;;;;;15.50;7.83;;;15.50;82.80;;;;;;5038374;28;20906;-72
2021/08/26 04:30:30;;;;;;;11.00;7.20;;;15.40;83.40;;;;;;5046205;28;21104;-72
2021/08/26 04:32:56;;;;;;;13.23;8.00;;;15.30;83.80;;;;;;5040656;28;20441;-72
2021/08/26 04:35:21;;;;;;;13.20;7.93;;;15.30;83.80;;;;;;5041527;28;20569;-73
2021/08/26 04:37:47;;;;;;;14.50;7.97;;;15.30;83.80;;;;;;5049217;28;20196;-72
2021/08/26 04:40:13;;;;;;;19.30;9.13;;;15.30;83.80;;;;;;5042994;28;20198;-74
2021/08/26 04:42:39;;;;;;;13.93;8.27;;;15.40;83.80;;;;;;5048555;28;20208;-73
2021/08/26 04:45:05;;;;;;;13.90;7.77;;;15.40;83.80;;;;;;5048218;28;20470;-71
2021/08/26 04:47:31;;;;;;;14.80;7.67;;;15.40;83.60;;;;;;5047711;28;20195;-71
2021/08/26 04:49:56;;;;;;;12.33;7.30;;;15.30;83.60;;;;;;5044458;28;20426;-71
2021/08/26 04:52:22;;;;;;;13.87;8.37;;;15.40;83.70;;;;;;5047856;28;20445;-72
2021/08/26 04:54:48;;;;;;;17.50;8.43;;;15.50;83.30;;;;;;5041269;28;20218;-73
2021/08/26 04:57:13;;;;;;;16.27;7.90;;;15.50;83.30;;;;;;5049227;28;20502;-72
2021/08/26 04:59:39;;;;;;;15.93;8.20;;;15.60;83.10;;;;;;5041113;28;20180;-71
2021/08/26 05:02:05;;;;;;;13.93;8.23;;;15.70;82.80;;;;;;5050099;28;20283;-73
2021/08/26 05:04:31;;;;;;;11.40;7.00;;;15.60;83.30;;;;;;5049412;28;20254;-74
2021/08/26 05:06:56;;;;;;;16.97;8.13;;;15.60;83.60;;;;;;5042958;28;20194;-73
2021/08/26 05:09:22;;;;;;;18.97;8.30;;;15.60;83.60;;;;;;5049798;28;20616;-71
2021/08/26 05:11:48;;;;;;;13.10;7.47;;;15.60;83.70;;;;;;5048828;28;20319;-72
2021/08/26 05:14:13;;;;;;;13.70;8.13;;;15.60;83.80;;;;;;5040855;28;20200;-72
2021/08/26 05:16:39;;;;;;;11.70;6.37;;;15.50;84.30;;;;;;5046783;28;20704;-71
2021/08/26 05:19:05;;;;;;;16.17;8.13;;;15.40;84.70;;;;;;5039090;28;20673;-72
2021/08/26 05:21:31;;;;;;;14.77;7.87;;;15.40;85.00;;;;;;5047332;28;20663;-73
2021/08/26 05:23:56;;;;;;;14.67;7.87;;;15.30;84.90;;;;;;5048275;28;20280;-73
2021/08/26 05:26:23;;;;;;;14.03;8.13;;;15.30;84.90;;;;;;5040599;28;20188;-74
2021/08/26 05:28:48;;;;;;;15.00;7.97;;;15.30;84.70;;;;;;5041971;28;20185;-73
2021/08/26 05:31:15;;;;;;;14.80;7.80;;;15.40;84.70;;;;;;5046355;28;20453;-72
2021/08/26 05:33:41;;;;;;;12.97;7.80;;;15.40;84.40;;;;;;5038036;28;20191;-73
2021/08/26 05:36:07;;;;;;;12.83;7.43;;;15.50;84.10;;;;;;5041309;28;20443;-72
2021/08/26 05:38:32;;;;;;;14.00;7.40;;;15.60;83.40;;;;;;5049526;28;20591;-74
2021/08/26 05:40:58;;;;;;;25.73;8.90;;;15.70;83.30;;;;;;5039145;28;20678;-75
2021/08/26 05:43:24;;;;;;;16.10;8.40;;;15.70;82.10;;;;;;5041007;28;20294;-73
2021/08/26 05:45:50;;;;;;;11.93;7.17;;;15.80;82.40;;;;;;5048811;28;20558;-76
2021/08/26 05:48:15;;;;;;;12.07;7.27;;;15.80;81.70;;;;;;5048709;28;20601;-75
2021/08/26 05:50:41;;;;;;;12.47;7.23;;;15.90;81.80;;;;;;5048562;28;20190;-74
2021/08/26 05:53:07;;;;;;;14.53;8.20;;;16.00;81.80;;;;;;5049390;28;20205;-74
2021/08/26 05:55:33;;;;;;;15.83;9.03;;;16.00;81.50;;;;;;5047435;28;20214;-72
2021/08/26 05:57:58;;;;;;;13.97;8.20;;;16.00;81.20;;;;;;5040152;28;20195;-75
2021/08/26 06:00:24;;;;;;;12.00;7.30;;;16.00;81.20;;;;;;5051761;28;20697;-74
2021/08/26 06:02:50;;;;;;;17.70;9.37;;;16.10;81.40;;;;;;5047097;28;20216;-75
2021/08/26 06:05:16;;;;;;;16.80;8.40;;;16.10;81.10;;;;;;5065517;28;20218;-75
2021/08/26 06:07:41;;;;;;;14.40;7.37;;;16.10;80.90;;;;;;5056009;28;20194;-73
2021/08/26 06:10:09;;;;;;;17.47;8.83;;;16.20;80.60;;;;;;5048496;28;20353;-73
2021/08/26 06:12:39;;;;;;;15.40;8.13;;;16.20;80.90;;;;;;5038648;28;20277;-74
2021/08/26 06:15:05;;;;;;;14.37;8.43;;;16.30;80.20;;;;;;5041409;28;20421;-74
2021/08/26 06:17:31;;;;;;;14.97;8.10;;;16.30;80.50;;;;;;5044509;28;20425;-75
2021/08/26 06:19:57;;;;;;;15.40;7.80;;;16.20;80.50;;;;;;5040078;28;21130;-76
2021/08/26 06:22:23;;;;;;;15.00;8.50;;;16.20;80.90;;;;;;5042571;28;20441;-76
2021/08/26 06:24:48;;;;;;;14.73;8.63;;;16.20;81.20;;;;;;5038603;28;20251;-76
2021/08/26 06:27:14;;;;;;;12.30;7.97;;;16.20;80.90;;;;;;5038665;28;20188;-75
2021/08/26 06:29:40;;;;;;;18.80;9.30;;;16.10;81.70;;;;;;5033077;28;20648;-75
2021/08/26 06:32:06;;;;;;;14.93;8.87;;;16.00;82.10;;;;;;5035500;28;20306;-73
2021/08/26 06:34:33;;;;;;;20.53;8.83;;;16.00;82.50;;;;;;5035419;28;20220;-73
2021/08/26 06:37:00;;;;;;;14.63;8.77;;;16.00;82.50;;;;;;5045909;28;20452;-72
2021/08/26 06:39:26;;;;;;;16.60;8.70;;;16.00;82.20;;;;;;5039515;28;20430;-73
2021/08/26 06:41:52;;;;;;;17.83;8.70;;;16.00;82.70;;;;;;5036585;28;20543;-72
2021/08/26 06:44:18;;;;;;;12.60;7.83;;;16.00;82.50;;;;;;5044855;28;20673;-72
2021/08/26 06:46:44;;;;;;;16.07;8.90;;;16.00;82.70;;;;;;5033402;28;20186;-72
2021/08/26 06:49:10;;;;;;;18.33;9.77;;;16.10;82.80;;;;;;5038499;28;20278;-72
2021/08/26 06:51:37;;;;;;;19.27;8.50;;;16.20;82.10;;;;;;5045018;28;20465;-73
2021/08/26 06:54:02;;;;;;;14.70;8.50;;;16.10;82.40;;;;;;5038440;28;20429;-73
2021/08/26 06:56:28;;;;;;;14.43;8.37;;;16.20;82.20;;;;;;5041564;28;20275;-74
2021/08/26 06:58:54;;;;;;;15.20;8.30;;;16.30;82.70;;;;;;5045571;28;20192;-72
2021/08/26 07:01:19;;;;;;;15.53;9.63;;;16.30;82.40;;;;;;5040882;28;20672;-74
2021/08/26 07:03:45;;;;;;;13.87;9.23;;;16.40;81.80;;;;;;5039596;28;20229;-73
2021/08/26 07:06:14;;;;;;;17.13;9.57;;;16.50;81.90;;;;;;5042641;28;20188;-72
2021/08/26 07:08:40;;;;;;;16.50;9.07;;;16.50;81.20;;;;;;5046212;28;20530;-73
2021/08/26 07:11:06;;;;;;;15.60;8.73;;;16.40;81.50;;;;;;5049057;28;20448;-72
2021/08/26 07:13:31;;;;;;;17.97;9.97;;;16.40;82.10;;;;;;5044750;28;20199;-72
2021/08/26 07:15:57;;;;;;;18.77;10.63;;;16.50;81.80;;;;;;5046277;28;20184;-73
2021/08/26 07:18:24;;;;;;;20.07;10.43;;;16.50;81.80;;;;;;5044139;28;20192;-72
2021/08/26 07:20:50;;;;;;;22.20;10.07;;;16.50;81.90;;;;;;5044073;28;20276;-72
2021/08/26 07:23:16;;;;;;;14.27;9.60;;;16.60;81.80;;;;;;5043115;28;20456;-73
2021/08/26 07:25:42;;;;;;;18.83;10.10;;;16.60;81.70;;;;;;5046950;28;20525;-72
2021/08/26 07:28:08;;;;;;;22.00;11.97;;;16.60;81.50;;;;;;5040582;28;20197;-72
2021/08/26 07:30:34;;;;;;;20.53;10.80;;;16.60;81.80;;;;;;5044710;28;20193;-72
2021/08/26 07:33:00;;;;;;;24.80;12.50;;;16.50;82.20;;;;;;5045092;28;20452;-73
2021/08/26 07:35:26;;;;;;;21.80;11.83;;;16.50;82.10;;;;;;5046676;28;20435;-74
2021/08/26 07:37:52;;;;;;;21.27;11.70;;;16.50;82.20;;;;;;5043167;28;20207;-73
2021/08/26 07:40:18;;;;;;;19.60;11.30;;;16.60;82.40;;;;;;5046292;28;20427;-73
2021/08/26 07:42:44;;;;;;;20.47;12.80;;;16.50;82.50;;;;;;5049277;28;20215;-73
2021/08/26 07:45:10;;;;;;;17.97;11.30;;;16.50;82.70;;;;;;5041801;28;20204;-72
2021/08/26 07:47:36;;;;;;;19.03;11.10;;;16.50;82.80;;;;;;5050275;28;20214;-73
2021/08/26 07:50:02;;;;;;;19.90;11.10;;;16.40;82.40;;;;;;5038790;28;20510;-73
2021/08/26 07:52:28;;;;;;;19.53;12.90;;;16.40;82.80;;;;;;5044058;28;20529;-73
2021/08/26 07:54:54;;;;;;;20.80;11.37;;;16.50;82.70;;;;;;5040250;28;21063;-72
2021/08/26 07:57:19;;;;;;;21.17;11.13;;;16.50;82.20;;;;;;5046536;28;20701;-72
2021/08/26 07:59:45;;;;;;;18.37;11.00;;;16.60;81.80;;;;;;5039450;28;20195;-74
2021/08/26 08:02:12;;;;;;;20.87;9.90;;;16.70;81.80;;;;;;5043356;28;20680;-74
2021/08/26 08:04:37;;;;;;;15.40;9.87;;;16.60;80.90;;;;;;5043317;28;20305;-73
2021/08/26 08:07:03;;;;;;;34.23;11.50;;;16.60;81.50;;;;;;5040050;28;20494;-73
2021/08/26 08:09:29;;;;;;;67.90;11.90;;;16.60;81.40;;;;;;5044412;28;20227;-72
2021/08/26 08:11:55;;;;;;;22.90;10.07;;;16.60;81.70;;;;;;5042327;28;20213;-73
2021/08/26 08:14:20;;;;;;;28.13;10.90;;;16.60;81.80;;;;;;5037193;28;20191;-73
2021/08/26 08:16:46;;;;;;;18.13;8.87;;;16.70;81.90;;;;;;5042138;28;20243;-72
2021/08/26 08:19:12;;;;;;;18.77;9.77;;;16.80;81.90;;;;;;5034643;28;20272;-72
2021/08/26 08:21:37;;;;;;;19.17;11.20;;;16.80;81.20;;;;;;5044068;28;20751;-72
2021/08/26 08:24:03;;;;;;;19.50;10.90;;;16.80;81.50;;;;;;5042328;28;20207;-75
2021/08/26 08:26:29;;;;;;;18.23;10.50;;;16.70;82.70;;;;;;5041244;28;20176;-73
2021/08/26 08:28:55;;;;;;;23.47;13.10;;;16.60;83.80;;;;;;5044683;28;20816;-73
2021/08/26 08:31:21;;;;;;;24.53;13.43;;;16.40;85.30;;;;;;5041647;28;20189;-72
2021/08/26 08:33:46;;;;;;;24.37;13.77;;;16.20;86.80;;;;;;5053000;28;20185;-74
2021/08/26 08:36:13;;;;;;;27.67;13.50;;;16.00;88.30;;;;;;5054675;28;20210;-74
2021/08/26 08:38:39;;;;;;;24.00;12.87;;;15.90;89.60;;;;;;5041662;28;20296;-74
2021/08/26 08:41:06;;;;;;;25.47;14.87;;;15.70;90.60;;;;;;5047000;28;21198;-73
2021/08/26 08:43:36;;;;;;;28.50;15.20;;;15.70;91.10;;;;;;5033805;28;20455;-73
2021/08/26 08:46:04;;;;;;;28.80;15.30;;;15.70;91.80;;;;;;5037837;28;20431;-73
2021/08/26 08:48:33;;;;;;;25.60;14.63;;;15.70;92.10;;;;;;5042102;28;20557;-73
2021/08/26 08:51:00;;;;;;;24.67;14.70;;;15.80;92.40;;;;;;5038549;28;20456;-72
2021/08/26 08:53:26;;;;;;;26.50;14.97;;;15.70;92.10;;;;;;5045835;28;20451;-75
2021/08/26 08:55:52;;;;;;;24.70;14.07;;;15.60;92.80;;;;;;5045852;28;20440;-72
2021/08/26 08:58:17;;;;;;;28.90;14.10;;;15.50;93.10;;;;;;5043746;28;20207;-73
2021/08/26 09:00:43;;;;;;;23.70;15.87;;;15.30;93.30;;;;;;5044873;28;20252;-74
2021/08/26 09:03:09;;;;;;;24.43;14.67;;;15.20;93.80;;;;;;5036336;28;20238;-73
2021/08/26 09:05:50;;;;;;;28.67;15.03;;;15.20;94.20;;;;;;5044282;28;20301;-73
2021/08/26 09:08:16;;;;;;;28.13;15.63;;;15.30;94.40;;;;;;5042528;28;20243;-74
2021/08/26 09:10:43;;;;;;;25.23;14.20;;;15.40;94.40;;;;;;5042209;28;20412;-74
2021/08/26 09:13:08;;;;;;;26.13;14.07;;;15.60;94.10;;;;;;5038436;28;20441;-75
2021/08/26 09:15:35;;;;;;;26.00;14.20;;;15.70;94.20;;;;;;5045147;28;20422;-73
2021/08/26 09:18:15;;;;;;;25.43;15.10;;;15.80;93.60;;;;;;5042789;28;20572;-75
2021/08/26 09:20:53;;;;;;;24.50;13.80;;;15.70;93.80;;;;;;5039152;28;20416;-73
2021/08/26 09:23:25;;;;;;;30.83;16.73;;;15.70;94.20;;;;;;5047101;28;20444;-74
2021/08/26 09:25:55;;;;;;;25.97;15.67;;;15.70;94.60;;;;;;5036458;28;20435;-74
2021/08/26 09:28:34;;;;;;;28.13;16.73;;;15.60;94.70;;;;;;5043247;28;20414;-72
2021/08/26 09:31:09;;;;;;;28.07;16.33;;;15.50;95.10;;;;;;5043061;28;21250;-72
2021/08/26 09:33:58;;;;;;;31.57;17.20;;;15.40;95.50;;;;;;5038657;28;20794;-73
2021/08/26 09:36:26;;;;;;;29.20;16.63;;;15.20;96.20;;;;;;5048877;28;20973;-73
2021/08/26 09:39:06;;;;;;;29.87;17.13;;;15.10;96.50;;;;;;5044258;28;20435;-72
2021/08/26 09:41:58;;;;;;;32.47;18.40;;;15.20;97.00;;;;;;5048281;28;20498;-72
2021/08/26 09:44:25;;;;;;;31.30;17.03;;;15.30;97.10;;;;;;5049552;28;20898;-72
2021/08/26 09:46:54;;;;;;;30.17;16.63;;;15.40;97.30;;;;;;5047284;28;20419;-73
2021/08/26 09:49:22;;;;;;;24.60;14.67;;;15.50;97.20;;;;;;5048681;28;20419;-72
2021/08/26 09:52:06;;;;;;;25.73;15.40;;;15.40;96.90;;;;;;5041206;28;20506;-73
2021/08/26 09:54:34;;;;;;;21.27;12.67;;;15.50;96.90;;;;;;5038941;28;20458;-72
2021/08/26 09:57:01;;;;;;;24.77;13.40;;;15.30;96.40;;;;;;5048282;28;20439;-71
2021/08/26 09:59:48;;;;;;;18.20;11.57;;;15.40;96.90;;;;;;5050824;28;20443;-71
2021/08/26 10:02:14;;;;;;;23.70;13.63;;;15.50;96.90;;;;;;5036566;28;20903;-73
2021/08/26 10:04:41;;;;;;;21.07;12.80;;;15.60;97.00;;;;;;5041811;28;20856;-73
2021/08/26 10:07:07;;;;;;;19.80;12.00;;;15.70;97.40;;;;;;5047464;28;20423;-72
2021/08/26 10:09:35;;;;;;;15.10;10.80;;;15.80;97.20;;;;;;5044070;28;20791;-73
2021/08/26 10:12:01;;;;;;;16.57;10.30;;;15.70;96.10;;;;;;5044945;28;20509;-72
2021/08/26 10:14:27;;;;;;;16.97;10.90;;;15.60;96.30;;;;;;5047538;28;20528;-75
2021/08/26 10:16:54;;;;;;;14.77;8.63;;;15.60;96.30;;;;;;5044524;28;20497;-74
2021/08/26 10:19:21;;;;;;;14.03;8.90;;;15.60;96.60;;;;;;5039181;28;20439;-73
2021/08/26 10:21:46;;;;;;;11.83;6.63;;;15.60;96.40;;;;;;5054224;28;20454;-73
2021/08/26 10:24:13;;;;;;;9.60;6.40;;;15.40;96.20;;;;;;5048333;28;20548;-73
2021/08/26 10:26:44;;;;;;;10.00;6.77;;;15.40;96.60;;;;;;5054867;28;20188;-71
2021/08/26 10:29:10;;;;;;;6.37;4.10;;;15.40;96.90;;;;;;5044298;28;20539;-73
2021/08/26 10:31:38;;;;;;;6.60;4.70;;;15.20;95.60;;;;;;5050908;28;21444;-72
2021/08/26 10:34:07;;;;;;;6.90;4.70;;;15.20;96.30;;;;;;5052048;28;20453;-74
2021/08/26 10:36:47;;;;;;;6.67;4.43;;;15.40;96.40;;;;;;5046503;28;20452;-73
2021/08/26 10:39:32;;;;;;;5.90;4.00;;;15.40;94.60;;;;;;5056124;28;20877;-72
2021/08/26 10:42:18;;;;;;;7.10;4.57;;;15.60;94.80;;;;;;5059573;28;20450;-72
2021/08/26 10:45:06;;;;;;;7.03;4.90;;;15.70;94.30;;;;;;5054192;28;20485;-73
2021/08/26 10:48:00;;;;;;;7.97;4.60;;;16.00;94.10;;;;;;5053896;28;20485;-72
2021/08/26 10:50:31;;;;;;;6.33;4.00;;;16.20;92.90;;;;;;5061147;28;20428;-73
2021/08/26 10:53:02;;;;;;;6.53;4.20;;;16.30;92.50;;;;;;5046701;28;20440;-73
2021/08/26 10:55:40;;;;;;;7.00;5.00;;;16.40;91.90;;;;;;5050083;28;20428;-74
2021/08/26 10:58:21;;;;;;;8.63;4.90;;;16.50;91.10;;;;;;5042029;28;20420;-73
2021/08/26 11:00:49;;;;;;;6.80;4.27;;;16.50;90.60;;;;;;5046293;28;20430;-73
2021/08/26 11:03:49;;;;;;;7.00;4.97;;;16.60;89.90;;;;;;5049395;28;20964;-72
2021/08/26 11:06:17;;;;;;;8.20;4.57;;;16.50;88.60;;;;;;5041023;28;20435;-73
2021/08/26 11:08:45;;;;;;;5.93;4.43;;;16.50;88.00;;;;;;5046816;28;20470;-73
2021/08/26 11:11:23;;;;;;;9.63;4.90;;;16.50;88.60;;;;;;5047082;28;20516;-73
2021/08/26 11:13:48;;;;;;;9.97;5.47;;;16.90;89.00;;;;;;5041229;28;20423;-73
2021/08/26 11:16:23;;;;;;;11.30;5.67;;;17.20;88.10;;;;;;5046506;28;20460;-74
2021/08/26 11:18:50;;;;;;;8.80;5.33;;;17.50;85.50;;;;;;5044312;28;20619;-73
2021/08/26 11:21:35;;;;;;;8.40;5.27;;;17.60;82.20;;;;;;5045184;28;20418;-74
2021/08/26 11:24:01;;;;;;;7.70;4.93;;;17.50;82.80;;;;;;5031641;28;20458;-74
2021/08/26 11:26:52;;;;;;;10.17;5.30;;;17.70;81.90;;;;;;5044157;28;20433;-73
2021/08/26 11:29:18;;;;;;;9.93;5.67;;;18.00;82.50;;;;;;5046315;28;20197;-74
2021/08/26 11:31:56;;;;;;;11.03;6.10;;;18.30;77.60;;;;;;5038800;28;20444;-73
2021/08/26 11:34:28;;;;;;;12.27;5.93;;;18.40;77.40;;;;;;5042362;28;20188;-73
2021/08/26 11:37:04;;;;;;;9.40;5.70;;;18.30;77.80;;;;;;5034539;28;20955;-73
2021/08/26 11:39:35;;;;;;;11.80;5.90;;;18.30;75.20;;;;;;5027342;28;20436;-73
2021/08/26 11:42:02;;;;;;;9.53;5.97;;;18.00;75.50;;;;;;5050111;28;20471;-73
2021/08/26 11:44:28;;;;;;;11.23;5.77;;;17.80;77.30;;;;;;5055835;28;20454;-73
2021/08/26 11:46:55;;;;;;;12.73;6.30;;;17.70;76.50;;;;;;5046845;28;20518;-74
2021/08/26 11:49:31;;;;;;;12.63;6.50;;;17.50;77.60;;;;;;5046485;28;20250;-73
2021/08/26 11:52:10;;;;;;;12.63;6.73;;;17.50;77.80;;;;;;5044660;28;20795;-73
2021/08/26 11:54:46;;;;;;;13.00;6.37;;;17.50;78.00;;;;;;5039301;28;20489;-72
2021/08/26 11:57:14;;;;;;;12.07;5.80;;;17.40;76.70;;;;;;5045864;28;20873;-75
2021/08/26 11:59:42;;;;;;;11.23;6.23;;;17.40;77.60;;;;;;5040294;28;20993;-73
2021/08/26 12:02:22;;;;;;;12.13;6.20;;;17.30;76.40;;;;;;5041172;28;20439;-73
2021/08/26 12:04:54;;;;;;;12.03;6.10;;;17.10;77.10;;;;;;5042108;28;21069;-73
2021/08/26 12:07:34;;;;;;;11.60;6.50;;;17.10;78.70;;;;;;5049031;28;20446;-74
2021/08/26 12:10:32;;;;;;;12.60;6.90;;;17.20;79.00;;;;;;5041294;28;20456;-72
2021/08/26 12:13:05;;;;;;;12.47;6.17;;;17.20;77.70;;;;;;5051593;28;20437;-72
2021/08/26 12:15:46;;;;;;;11.93;5.87;;;17.10;78.60;;;;;;5038202;28;20419;-72
2021/08/26 12:18:17;;;;;;;11.10;5.37;;;17.20;79.30;;;;;;5040950;28;20572;-73
2021/08/26 12:21:08;;;;;;;13.80;6.97;;;17.40;79.00;;;;;;5045621;28;20419;-72
2021/08/26 12:23:37;;;;;;;13.20;6.90;;;17.50;78.90;;;;;;5039147;28;20450;-73
2021/08/26 12:26:11;;;;;;;11.93;6.87;;;17.60;79.60;;;;;;5041902;28;20428;-73
2021/08/26 12:28:42;;;;;;;15.13;6.73;;;17.70;79.50;;;;;;5037426;28;20998;-72
2021/08/26 12:31:09;;;;;;;14.70;7.73;;;17.60;78.40;;;;;;5046213;28;20451;-73
2021/08/26 12:33:37;;;;;;;11.03;5.70;;;17.60;79.00;;;;;;5043647;28;20431;-74
2021/08/26 12:36:03;;;;;;;11.03;6.20;;;17.70;78.40;;;;;;5046293;28;20485;-73
2021/08/26 12:38:34;;;;;;;11.60;6.50;;;17.70;75.90;;;;;;5048428;28;20418;-72
2021/08/26 12:41:02;;;;;;;13.43;6.90;;;17.90;76.20;;;;;;5046242;28;20850;-72
2021/08/26 12:43:48;;;;;;;14.43;7.87;;;18.10;75.70;;;;;;5044300;28;20446;-74
2021/08/26 12:46:20;;;;;;;10.17;5.93;;;18.00;74.00;;;;;;5043489;28;20437;-74
2021/08/26 12:48:47;;;;;;;12.50;6.50;;;17.90;74.90;;;;;;5040266;28;20937;-72